Hartsfield Jackson Atlanta International Airport
KATL : now visible

Airfield :











YOU CAN JOIN US ON...

 
LOGIN :

Register | Disclaimer

   EN    FR    IT 

 









Legend :    VFR   Marginal VFR   IFR   Intensive IFR   Very Intensive IFR
Visi :
Ceiling :
>= 8 km
>= 3000ft
5 to 8 km
1000 to 3000 ft
1500m to 5 km
500 to 1000 ft
800 to 1500m
200 to 500 ft
< 800m
< 200 ft
Symbols :   Thunderstorms  Fog  Heavy snow  Heavy precipitations  Wind > 20 kt






- Airport Elevation : 1026 ft
- IATA code : ATL


KATL - Hartsfield Jackson Atlanta International

CURRENT METAR :
  • 232052Z 08007KT 10SM FEW060 FEW200 SCT250 28/15 A3012 RMK AO2 SLP190 T02780150 56004

EXPIRED METARs :
  • 232029Z 09011G17KT 10SM FEW065 FEW200 SCT250 28/15 A3011 RMK AO2 T02830150
  • 231952Z 13006KT 10SM FEW060 FEW200 SCT250 29/14 A3012 RMK AO2 SLP190 T02890144
  • 231852Z 08006KT 10SM FEW060 FEW200 SCT250 28/14 A3012 RMK AO2 SLP192 T02780139

TAF KATL
Valid from the 23 at 20:00 until the 25 at 00:00 UTC


231930Z 2320/2424 08006KT P6SM FEW060 SCT250
FM241200 09008KT P6SM SCT015
FM241600 10012KT P6SM SCT050
KZTL FIR / North America



MET'MAP, your aeronautical weather chart ! - Copyright ORBIFLY December 2007 - Disclaimer

ORBIFLY MET'MAP TEAM :

Programming & Development : Alexandra Zaïnal
Concept & original design : Baudouin d'Aumeries
Assistance for programming : Marc-Olivier Méhu
Technical & hardware support : Manuel Goepfert

Contact : metmap@orbifly.com




SOURCES & CREDITS :

   NOAA       Earth
Advisory